createdAt,value
2018-02-21T00:00:27.285Z,75.60
2018-02-21T00:02:54.897Z,75.50
2018-02-21T00:05:23.325Z,75.50
2018-02-21T00:07:53.674Z,75.60
2018-02-21T00:10:21.301Z,75.60
2018-02-21T00:12:49.765Z,76.00
2018-02-21T00:15:18.871Z,75.90
2018-02-21T00:17:47.284Z,75.90
2018-02-21T00:20:14.895Z,75.70
2018-02-21T00:22:42.531Z,75.70
2018-02-21T00:25:10.129Z,76.00
2018-02-21T00:27:37.746Z,75.90
2018-02-21T00:30:05.365Z,75.80
2018-02-21T00:32:32.989Z,76.00
2018-02-21T00:35:00.754Z,76.10
2018-02-21T00:37:28.350Z,76.00
2018-02-21T00:39:55.954Z,76.10
2018-02-21T00:42:24.330Z,76.30
2018-02-21T00:44:51.983Z,76.00
2018-02-21T00:47:19.615Z,76.00
2018-02-21T00:49:47.223Z,76.10
2018-02-21T00:52:15.649Z,76.00
2018-02-21T00:54:43.268Z,76.00
2018-02-21T00:57:10.882Z,76.10
2018-02-21T00:59:38.480Z,76.40
2018-02-21T01:02:06.243Z,76.40
2018-02-21T01:04:33.882Z,76.50
2018-02-21T01:07:01.482Z,76.50
2018-02-21T01:09:37.506Z,76.50
2018-02-21T01:12:05.112Z,76.40
2018-02-21T01:14:32.716Z,76.50
2018-02-21T01:17:01.090Z,76.50
2018-02-21T01:19:29.461Z,76.60
2018-02-21T01:21:57.837Z,76.30
2018-02-21T01:24:26.971Z,76.60
2018-02-21T01:26:54.581Z,76.50
2018-02-21T01:29:22.218Z,76.50
2018-02-21T01:31:49.819Z,76.50
2018-02-21T01:34:17.651Z,76.60
2018-02-21T01:36:45.247Z,76.70
2018-02-21T01:39:12.858Z,76.90
2018-02-21T01:41:41.247Z,76.70
2018-02-21T01:44:08.857Z,76.70
2018-02-21T01:46:36.465Z,76.70
2018-02-21T01:49:05.009Z,77.40
2018-02-21T01:51:33.265Z,76.80
2018-02-21T01:54:00.880Z,76.70
2018-02-21T01:56:29.999Z,76.90
2018-02-21T01:58:57.614Z,76.90
2018-02-21T02:01:25.215Z,76.90
2018-02-21T02:03:52.854Z,76.90
2018-02-21T02:06:20.469Z,77.00
2018-02-21T02:08:48.872Z,77.10
2018-02-21T02:11:16.480Z,77.00
2018-02-21T02:13:44.871Z,77.00
2018-02-21T02:16:12.483Z,77.00
2018-02-21T02:18:40.091Z,76.90
2018-02-21T02:21:07.704Z,76.90
2018-02-21T02:23:36.188Z,76.80
2018-02-21T02:26:04.553Z,76.80
2018-02-21T02:28:32.176Z,76.80
2018-02-21T02:30:59.796Z,76.80
2018-02-21T02:33:28.184Z,76.90
2018-02-21T02:35:56.546Z,77.00
2018-02-21T02:38:36.249Z,77.00
2018-02-21T02:41:03.854Z,77.00
2018-02-21T02:43:32.288Z,77.10
2018-02-21T02:45:59.949Z,77.10
2018-02-21T02:48:27.550Z,77.10
2018-02-21T02:50:55.496Z,77.10
2018-02-21T02:53:26.346Z,77.10
2018-02-21T02:55:54.776Z,77.20
2018-02-21T02:58:22.399Z,77.20
2018-02-21T03:00:49.991Z,77.30
2018-02-21T03:03:17.613Z,77.20
2018-02-21T03:05:45.220Z,77.20
2018-02-21T03:08:12.849Z,77.20
2018-02-21T03:10:40.458Z,77.20
2018-02-21T03:13:08.181Z,77.20
2018-02-21T03:15:35.829Z,77.20
2018-02-21T03:18:04.196Z,77.40
2018-02-21T03:20:32.645Z,77.30
2018-02-21T03:23:00.262Z,77.20
2018-02-21T03:25:28.633Z,77.40
2018-02-21T03:27:57.006Z,77.40
2018-02-21T03:30:24.623Z,77.40
2018-02-21T03:32:52.256Z,77.40
2018-02-21T03:35:19.855Z,77.40
2018-02-21T03:37:47.466Z,77.50
2018-02-21T03:40:15.859Z,77.40
2018-02-21T03:42:44.226Z,77.30
2018-02-21T03:45:13.370Z,77.40
2018-02-21T03:47:41.038Z,77.40
2018-02-21T03:50:08.654Z,77.50
2018-02-21T03:52:37.076Z,77.80
2018-02-21T03:55:04.681Z,78.20
2018-02-21T03:57:32.324Z,77.60
2018-02-21T03:59:59.958Z,77.60
2018-02-21T04:02:28.326Z,77.50
2018-02-21T04:04:55.956Z,77.50
2018-02-21T04:07:23.558Z,77.30
2018-02-21T04:09:52.038Z,77.10
2018-02-21T04:12:21.167Z,77.30
2018-02-21T04:14:49.578Z,77.20
2018-02-21T04:17:17.216Z,77.20
2018-02-21T04:19:45.579Z,77.30
2018-02-21T04:22:13.972Z,77.30
2018-02-21T04:24:42.356Z,77.30
2018-02-21T04:27:10.776Z,77.40
2018-02-21T04:29:38.436Z,77.40
2018-02-21T04:32:06.040Z,77.30
2018-02-21T04:34:33.768Z,77.30
2018-02-21T04:37:01.376Z,77.20
2018-02-21T04:39:29.012Z,77.40
2018-02-21T04:41:56.745Z,77.50
2018-02-21T04:44:25.150Z,77.50
2018-02-21T04:46:52.753Z,77.50
2018-02-21T04:49:20.382Z,77.50
2018-02-21T04:51:48.019Z,77.50
2018-02-21T04:54:21.867Z,77.60
2018-02-21T04:56:55.100Z,77.50
2018-02-21T04:59:38.441Z,77.60
2018-02-21T05:02:06.050Z,77.60
2018-02-21T05:04:33.644Z,77.50
2018-02-21T05:07:01.386Z,77.50
2018-02-21T05:09:28.998Z,77.50
2018-02-21T05:11:57.407Z,77.80
2018-02-21T05:14:25.789Z,77.60
2018-02-21T05:16:54.187Z,77.60
2018-02-21T05:19:21.795Z,77.60
2018-02-21T05:21:49.408Z,77.60
2018-02-21T05:24:17.154Z,77.50
2018-02-21T05:26:45.525Z,78.20
2018-02-21T05:29:13.158Z,77.50
2018-02-21T05:31:40.782Z,77.60
2018-02-21T05:34:09.161Z,77.60
2018-02-21T05:36:37.624Z,77.60
2018-02-21T05:39:05.189Z,77.60
2018-02-21T05:41:34.329Z,77.70
2018-02-21T05:44:01.955Z,77.60
2018-02-21T05:46:30.378Z,77.50
2018-02-21T05:48:57.988Z,77.50
2018-02-21T05:51:25.646Z,77.50
2018-02-21T05:53:53.274Z,77.60
2018-02-21T05:56:20.897Z,77.50
2018-02-21T05:58:48.573Z,77.50
2018-02-21T06:01:16.184Z,77.50
2018-02-21T06:03:43.777Z,77.50
2018-02-21T06:06:11.416Z,77.50
2018-02-21T06:08:39.018Z,77.50
2018-02-21T06:11:06.652Z,77.50
2018-02-21T06:13:34.246Z,77.50
2018-02-21T06:16:01.851Z,77.40
2018-02-21T06:18:30.338Z,77.40
2018-02-21T06:20:58.355Z,77.40
2018-02-21T06:23:26.007Z,77.30
2018-02-21T06:25:53.596Z,77.20
2018-02-21T06:28:21.260Z,77.30
2018-02-21T06:30:48.843Z,77.40
2018-02-21T06:33:16.516Z,77.50
2018-02-21T06:35:44.174Z,77.40
2018-02-21T06:38:11.779Z,77.50
2018-02-21T06:40:39.418Z,77.40
2018-02-21T06:43:07.019Z,77.40
2018-02-21T06:45:35.506Z,77.40
2018-02-21T06:48:03.122Z,77.30
2018-02-21T06:50:30.755Z,77.20
2018-02-21T06:52:58.358Z,77.20
2018-02-21T06:55:26.765Z,77.20
2018-02-21T06:57:55.187Z,77.50
2018-02-21T07:00:22.811Z,76.90
2018-02-21T07:02:50.449Z,76.70
2018-02-21T07:05:18.043Z,76.60
2018-02-21T07:07:45.659Z,76.60
2018-02-21T07:10:13.260Z,76.70
2018-02-21T07:12:40.883Z,76.60
2018-02-21T07:15:08.517Z,76.60
2018-02-21T07:17:36.895Z,76.50
2018-02-21T07:20:05.266Z,76.30
2018-02-21T07:22:32.868Z,76.20
2018-02-21T07:25:00.507Z,76.20
2018-02-21T07:27:29.615Z,76.10
2018-02-21T07:29:58.003Z,76.20
2018-02-21T07:32:26.392Z,76.50
2018-02-21T07:34:54.756Z,75.70
2018-02-21T07:37:22.374Z,75.60
2018-02-21T07:39:50.031Z,75.00
2018-02-21T07:42:17.659Z,75.00
2018-02-21T07:44:46.253Z,75.00
2018-02-21T07:47:14.741Z,74.60
2018-02-21T07:49:43.126Z,74.50
2018-02-21T07:52:11.534Z,74.40
2018-02-21T07:54:39.142Z,74.40
2018-02-21T07:57:06.896Z,74.40
2018-02-21T07:59:34.521Z,74.30
2018-02-21T08:02:02.132Z,74.20
2018-02-21T08:04:29.776Z,74.50
2018-02-21T08:06:57.512Z,74.60
2018-02-21T08:09:26.030Z,74.50
2018-02-21T08:11:53.643Z,74.50
2018-02-21T08:14:22.036Z,74.60
2018-02-21T08:16:49.657Z,74.70
2018-02-21T08:19:17.244Z,74.60
2018-02-21T08:21:44.874Z,74.50
2018-02-21T08:24:12.489Z,74.40
2018-02-21T08:26:40.900Z,74.50
2018-02-21T08:29:09.269Z,74.90
2018-02-21T08:31:37.674Z,74.60
2018-02-21T08:34:05.269Z,74.60
2018-02-21T08:36:32.940Z,74.60
2018-02-21T08:39:00.545Z,74.00
2018-02-21T08:41:28.163Z,73.70
2018-02-21T08:43:55.783Z,74.40
2018-02-21T08:46:24.147Z,73.70
2018-02-21T08:48:53.271Z,73.20
2018-02-21T08:51:21.631Z,72.20
2018-02-21T08:53:50.780Z,72.20
2018-02-21T08:56:18.363Z,72.10
2018-02-21T08:58:45.977Z,72.40
2018-02-21T09:01:14.373Z,71.80
2018-02-21T09:03:42.042Z,71.80
2018-02-21T09:06:10.526Z,72.00
2018-02-21T09:08:38.974Z,72.20
2018-02-21T09:11:06.634Z,72.20
2018-02-21T09:13:34.436Z,72.20
2018-02-21T09:16:02.074Z,72.10
2018-02-21T09:18:29.888Z,72.70
2018-02-21T09:20:58.280Z,71.60
2018-02-21T09:23:25.916Z,71.60
2018-02-21T09:25:54.320Z,71.80
2018-02-21T09:28:26.438Z,70.80
2018-02-21T09:30:54.083Z,70.80
2018-02-21T09:33:21.765Z,70.70
2018-02-21T09:35:49.391Z,70.50
2018-02-21T09:38:17.025Z,69.80
2018-02-21T09:40:44.690Z,69.80
2018-02-21T09:43:12.343Z,69.40
2018-02-21T09:45:39.993Z,69.20
2018-02-21T09:48:07.629Z,69.60
2018-02-21T09:50:35.282Z,70.00
2018-02-21T09:53:03.679Z,69.30
2018-02-21T09:55:31.696Z,69.30
2018-02-21T09:57:59.332Z,69.40
2018-02-21T10:00:27.083Z,69.10
2018-02-21T10:02:55.547Z,69.40
2018-02-21T10:05:23.961Z,69.50
2018-02-21T10:07:51.813Z,69.30
2018-02-21T10:10:23.079Z,69.10
2018-02-21T10:12:50.741Z,69.10
2018-02-21T10:15:18.398Z,69.00
2018-02-21T10:17:46.971Z,68.50
2018-02-21T10:20:14.603Z,68.40
2018-02-21T10:22:42.259Z,69.10
2018-02-21T10:25:09.875Z,68.50
2018-02-21T10:27:37.597Z,68.50
2018-02-21T10:30:05.255Z,68.40
2018-02-21T10:32:32.954Z,68.60
2018-02-21T10:35:00.655Z,68.20
2018-02-21T10:37:29.056Z,67.70
2018-02-21T10:39:56.723Z,67.70
2018-02-21T10:42:24.360Z,67.00
2018-02-21T10:44:52.023Z,67.20
2018-02-21T10:47:19.652Z,67.50
2018-02-21T10:49:47.542Z,66.50
2018-02-21T10:52:16.542Z,66.60
2018-02-21T10:54:45.840Z,66.50
2018-02-21T10:57:13.500Z,66.50
2018-02-21T10:59:41.442Z,66.50
2018-02-21T11:02:09.231Z,66.10
2018-02-21T11:04:36.860Z,65.40
2018-02-21T11:07:05.307Z,63.20
2018-02-21T11:09:33.703Z,60.20
2018-02-21T11:12:01.364Z,60.20
2018-02-21T11:14:29.011Z,55.40
2018-02-21T11:16:56.696Z,53.00
2018-02-21T11:19:24.332Z,50.00
2018-02-21T11:21:52.028Z,50.70
2018-02-21T11:24:19.678Z,51.80
2018-02-21T11:26:47.311Z,52.60
2018-02-21T11:29:14.969Z,51.70
2018-02-21T11:31:42.608Z,50.90
2018-02-21T11:34:10.296Z,52.90
2018-02-21T11:36:38.682Z,53.50
2018-02-21T11:39:06.356Z,53.60
2018-02-21T11:41:33.996Z,53.80
2018-02-21T11:44:02.431Z,48.00
2018-02-21T11:46:30.078Z,48.00
2018-02-21T11:48:57.763Z,48.10
2018-02-21T11:51:25.593Z,50.60
2018-02-21T11:53:53.980Z,48.70
2018-02-21T11:56:21.717Z,48.70
2018-02-21T11:58:50.872Z,47.50
2018-02-21T12:01:18.551Z,47.50
2018-02-21T12:03:46.206Z,45.20
2018-02-21T12:06:13.850Z,45.30
2018-02-21T12:08:42.253Z,43.70
2018-02-21T12:11:09.910Z,43.70
2018-02-21T12:13:37.542Z,44.00
2018-02-21T12:16:05.989Z,44.20
2018-02-21T12:18:33.584Z,44.20
2018-02-21T12:21:02.280Z,41.50
2018-02-21T12:23:30.675Z,44.20
2018-02-21T12:25:58.299Z,44.20
2018-02-21T12:28:25.958Z,43.20
2018-02-21T12:30:53.598Z,45.30
2018-02-21T12:33:21.282Z,45.90
2018-02-21T12:35:48.924Z,48.60
2018-02-21T12:38:17.352Z,47.60
2018-02-21T12:43:48.311Z,47.80
2018-02-21T12:46:15.964Z,49.70
2018-02-21T12:48:43.677Z,49.70
2018-02-21T12:51:12.105Z,50.50
2018-02-21T12:53:39.743Z,50.50
2018-02-21T12:56:08.211Z,51.50
2018-02-21T12:58:36.730Z,54.40
2018-02-21T13:01:04.430Z,53.90
2018-02-21T13:03:32.112Z,53.10
2018-02-21T13:05:59.799Z,54.10
2018-02-21T13:08:27.405Z,55.50
2018-02-21T13:10:55.097Z,55.80
2018-02-21T13:13:22.734Z,55.20
2018-02-21T13:15:50.529Z,56.50
2018-02-21T13:18:18.240Z,56.50
2018-02-21T13:20:45.835Z,56.70
2018-02-21T13:23:13.514Z,56.50
2018-02-21T13:25:41.148Z,58.40
2018-02-21T13:28:09.615Z,59.10
2018-02-21T13:30:38.009Z,60.20
2018-02-21T13:33:06.453Z,59.80
2018-02-21T13:35:34.115Z,59.70
2018-02-21T13:38:05.014Z,60.10
2018-02-21T13:40:32.679Z,60.40
2018-02-21T13:43:00.312Z,60.90
2018-02-21T13:45:28.006Z,61.20
2018-02-21T13:47:56.413Z,60.80
2018-02-21T13:50:24.106Z,60.80
2018-02-21T13:52:51.744Z,61.70
2018-02-21T13:55:19.629Z,62.40
2018-02-21T13:57:47.327Z,61.70
2018-02-21T14:00:14.977Z,61.80
2018-02-21T14:02:42.779Z,62.20
2018-02-21T14:05:10.443Z,61.70
2018-02-21T14:07:38.129Z,62.90
2018-02-21T14:10:06.524Z,62.70
2018-02-21T14:12:34.921Z,62.70
2018-02-21T14:15:02.680Z,62.70
2018-02-21T14:17:30.466Z,63.00
2018-02-21T14:20:01.218Z,63.60
2018-02-21T14:22:28.861Z,63.50
2018-02-21T14:24:56.540Z,62.70
2018-02-21T14:27:24.178Z,63.20
2018-02-21T14:29:52.648Z,63.40
2018-02-21T14:32:21.051Z,64.00
2018-02-21T14:34:49.474Z,64.00
2018-02-21T14:37:17.102Z,64.00
2018-02-21T14:39:45.860Z,63.30
2018-02-21T14:42:13.530Z,63.30
2018-02-21T14:44:41.179Z,63.40
2018-02-21T14:47:08.858Z,63.60
2018-02-21T14:49:36.486Z,63.30
2018-02-21T14:52:04.250Z,62.10
2018-02-21T14:54:31.886Z,62.40
2018-02-21T14:57:00.323Z,61.60
2018-02-21T14:59:28.000Z,61.70
2018-02-21T15:01:55.645Z,61.40
2018-02-21T15:04:23.373Z,61.20
2018-02-21T15:06:51.796Z,60.20
2018-02-21T15:09:19.460Z,60.20
2018-02-21T15:11:47.152Z,60.70
2018-02-21T15:14:14.792Z,60.80
2018-02-21T15:16:42.520Z,59.20
2018-02-21T15:19:11.091Z,60.10
2018-02-21T15:21:39.467Z,59.80
2018-02-21T15:24:07.888Z,59.80
2018-02-21T15:26:36.258Z,59.50
2018-02-21T15:29:04.720Z,60.10
2018-02-21T15:31:32.416Z,59.90
2018-02-21T15:34:00.789Z,59.50
2018-02-21T15:36:28.464Z,59.50
2018-02-21T15:38:56.827Z,60.80
2018-02-21T15:41:25.290Z,61.50
2018-02-21T15:43:52.900Z,61.00
2018-02-21T15:46:21.343Z,61.60
2018-02-21T15:48:49.064Z,61.60
2018-02-21T15:51:16.989Z,62.60
2018-02-21T15:53:44.720Z,62.80
2018-02-21T15:56:12.346Z,63.10
2018-02-21T15:58:40.828Z,63.70
2018-02-21T16:01:08.426Z,63.70
2018-02-21T16:03:41.092Z,63.50
2018-02-21T16:06:09.479Z,65.10
2018-02-21T16:08:37.885Z,65.10
2018-02-21T16:11:05.493Z,65.10
2018-02-21T16:13:33.125Z,65.50
2018-02-21T16:16:00.780Z,65.70
2018-02-21T16:18:28.444Z,66.50
2018-02-21T16:20:56.052Z,66.80
2018-02-21T16:23:23.655Z,67.50
2018-02-21T16:25:52.039Z,67.40
2018-02-21T16:28:20.427Z,67.80
2018-02-21T16:30:48.905Z,67.80
2018-02-21T16:33:17.285Z,67.90
2018-02-21T16:35:45.754Z,68.20
2018-02-21T16:38:13.370Z,68.20
2018-02-21T16:40:41.010Z,68.40
2018-02-21T16:43:09.380Z,68.70
2018-02-21T16:45:37.758Z,68.80
2018-02-21T16:48:05.404Z,68.80
2018-02-21T16:50:33.011Z,69.00
2018-02-21T16:53:01.412Z,69.60
2018-02-21T16:55:29.010Z,69.40
2018-02-21T16:57:56.590Z,69.70
2018-02-21T17:00:24.248Z,69.90
2018-02-21T17:02:54.139Z,69.90
2018-02-21T17:05:21.735Z,69.80
2018-02-21T17:07:49.333Z,69.90
2018-02-21T17:10:17.739Z,69.50
2018-02-21T17:12:45.355Z,69.40
2018-02-21T17:15:12.997Z,69.40
2018-02-21T17:17:40.604Z,69.50
2018-02-21T17:20:09.029Z,69.10
2018-02-21T17:22:36.655Z,69.30
2018-02-21T17:25:05.090Z,69.40
2018-02-21T17:27:32.713Z,69.30
2018-02-21T17:30:01.429Z,69.90
2018-02-21T17:32:29.167Z,69.90
2018-02-21T17:34:57.554Z,70.10
2018-02-21T17:37:25.982Z,70.50
2018-02-21T17:39:53.628Z,70.00
2018-02-21T17:42:21.241Z,70.10
2018-02-21T17:44:48.849Z,70.30
2018-02-21T17:47:18.591Z,70.20
2018-02-21T17:49:46.191Z,70.10
2018-02-21T17:52:13.846Z,70.00
2018-02-21T17:54:41.453Z,70.20
2018-02-21T17:57:09.838Z,70.60
2018-02-21T17:59:38.317Z,70.80
2018-02-21T18:02:06.674Z,70.70
2018-02-21T18:04:34.298Z,71.20
2018-02-21T18:07:01.917Z,70.80
2018-02-21T18:09:31.183Z,70.90
2018-02-21T18:11:58.822Z,70.80
2018-02-21T18:14:26.475Z,70.90
2018-02-21T18:16:54.875Z,71.00
2018-02-21T18:19:22.528Z,70.90
2018-02-21T18:21:50.933Z,71.20
2018-02-21T18:24:18.528Z,71.20
2018-02-21T18:26:46.160Z,71.40
2018-02-21T18:29:13.820Z,71.60
2018-02-21T18:31:41.455Z,71.90
2018-02-21T18:34:09.071Z,72.50
2018-02-21T18:36:36.766Z,73.10
2018-02-21T18:39:04.404Z,72.50
2018-02-21T18:41:31.993Z,72.60
2018-02-21T18:43:59.703Z,72.50
2018-02-21T18:46:28.213Z,72.60
2018-02-21T18:48:55.971Z,72.50
2018-02-21T18:51:23.625Z,72.50
2018-02-21T18:53:52.912Z,72.80
2018-02-21T18:56:20.569Z,72.80
2018-02-21T18:58:49.716Z,72.80
2018-02-21T19:01:17.399Z,72.80
2018-02-21T19:03:45.080Z,73.00
2018-02-21T19:06:12.800Z,72.90
2018-02-21T19:08:41.222Z,72.40
2018-02-21T19:11:08.833Z,72.40
2018-02-21T19:13:37.237Z,72.00
2018-02-21T19:16:05.674Z,72.50
2018-02-21T19:18:33.337Z,72.50
2018-02-21T19:21:01.020Z,72.20
2018-02-21T19:23:29.417Z,72.90
2018-02-21T19:25:57.887Z,72.50
2018-02-21T19:28:25.577Z,72.50
2018-02-21T19:30:54.087Z,72.40
2018-02-21T19:33:21.876Z,72.40
2018-02-21T19:35:49.568Z,72.50
2018-02-21T19:38:17.195Z,72.40
2018-02-21T19:40:44.969Z,72.30
2018-02-21T19:43:12.613Z,72.30
2018-02-21T19:45:41.125Z,72.10
2018-02-21T19:48:08.795Z,72.10
2018-02-21T19:50:36.460Z,72.40
2018-02-21T19:53:04.348Z,72.40
2018-02-21T19:55:32.324Z,72.00
2018-02-21T19:58:00.384Z,72.00
2018-02-21T20:00:29.382Z,71.70
2018-02-21T20:02:57.135Z,71.50
2018-02-21T20:05:25.302Z,71.70
2018-02-21T20:07:54.055Z,71.60
2018-02-21T20:10:21.783Z,71.70
2018-02-21T20:12:49.472Z,71.70
2018-02-21T20:15:18.114Z,71.20
2018-02-21T20:17:45.922Z,70.90
2018-02-21T20:20:13.695Z,70.70
2018-02-21T20:22:41.428Z,70.40
2018-02-21T20:25:09.322Z,70.80
2018-02-21T20:27:37.026Z,71.00
2018-02-21T20:30:04.821Z,70.60
2018-02-21T20:32:33.276Z,71.10
2018-02-21T20:35:01.197Z,70.50
2018-02-21T20:37:29.659Z,70.30
2018-02-21T20:39:57.476Z,70.30
2018-02-21T20:42:25.149Z,70.50
2018-02-21T20:44:52.903Z,70.60
2018-02-21T20:47:20.608Z,70.80
2018-02-21T20:49:48.342Z,70.80
2018-02-21T20:52:16.092Z,71.00
2018-02-21T20:54:43.893Z,71.10
2018-02-21T20:57:11.747Z,70.70
2018-02-21T20:59:39.492Z,70.60
2018-02-21T21:02:07.920Z,70.60
2018-02-21T21:04:35.672Z,70.50
2018-02-21T21:07:03.391Z,70.70
2018-02-21T21:09:31.887Z,70.80
2018-02-21T21:11:59.549Z,70.80
2018-02-21T21:14:29.420Z,70.60
2018-02-21T21:16:57.187Z,70.50
2018-02-21T21:19:24.807Z,70.50
2018-02-21T21:21:53.938Z,70.10
2018-02-21T21:24:21.757Z,70.00
2018-02-21T21:26:49.444Z,70.00
2018-02-21T21:29:17.904Z,70.20
2018-02-21T21:31:46.151Z,70.00
2018-02-21T21:34:13.799Z,69.90
2018-02-21T21:36:42.237Z,69.80
2018-02-21T21:39:09.929Z,69.80
2018-02-21T21:41:38.453Z,70.20
2018-02-21T21:44:06.120Z,69.80
2018-02-21T21:46:33.757Z,69.70
2018-02-21T21:49:02.692Z,69.60
2018-02-21T21:51:30.844Z,69.60
2018-02-21T21:53:59.222Z,69.50
2018-02-21T21:56:27.064Z,69.50
2018-02-21T21:58:54.654Z,69.60
2018-02-21T22:01:23.078Z,69.70
2018-02-21T22:03:50.686Z,69.60
2018-02-21T22:06:18.373Z,69.60
2018-02-21T22:08:46.828Z,69.60
2018-02-21T22:11:14.444Z,69.60
2018-02-21T22:13:42.242Z,69.50
2018-02-21T22:16:09.883Z,69.60
2018-02-21T22:18:37.530Z,69.70
2018-02-21T22:21:05.997Z,69.80
2018-02-21T22:23:34.423Z,70.00
2018-02-21T22:26:02.040Z,70.00
2018-02-21T22:28:29.614Z,70.20
2018-02-21T22:30:58.030Z,70.20
2018-02-21T22:33:25.632Z,70.10
2018-02-21T22:35:53.262Z,69.80
2018-02-21T22:38:20.892Z,69.70
2018-02-21T22:40:49.299Z,70.30
2018-02-21T22:43:17.679Z,69.60
2018-02-21T22:45:46.151Z,69.80
2018-02-21T22:48:14.779Z,69.80
2018-02-21T22:50:42.381Z,69.70
2018-02-21T22:53:10.020Z,69.40
2018-02-21T22:55:37.619Z,69.60
2018-02-21T22:58:11.544Z,69.70
2018-02-21T23:00:39.171Z,69.90
2018-02-21T23:03:06.896Z,69.80
2018-02-21T23:05:35.268Z,70.00
2018-02-21T23:08:03.647Z,70.20
2018-02-21T23:10:31.268Z,70.10
2018-02-21T23:12:58.866Z,70.10
2018-02-21T23:15:26.482Z,70.20
2018-02-21T23:17:54.099Z,70.40
2018-02-21T23:20:22.505Z,70.20
2018-02-21T23:22:50.856Z,70.30
2018-02-21T23:25:18.807Z,70.30
2018-02-21T23:27:46.406Z,70.50
2018-02-21T23:30:14.795Z,70.10
2018-02-21T23:32:43.188Z,70.10
2018-02-21T23:35:10.892Z,70.20
2018-02-21T23:37:38.614Z,70.30
2018-02-21T23:40:06.204Z,70.10
2018-02-21T23:42:33.854Z,70.40
2018-02-21T23:45:02.238Z,70.30
2018-02-21T23:47:30.605Z,70.50
2018-02-21T23:49:58.242Z,70.40
2018-02-21T23:52:25.858Z,70.40
2018-02-21T23:54:54.249Z,70.00
2018-02-21T23:57:21.866Z,70.00
2018-02-21T23:59:56.871Z,70.20
